Time;durP1;ratioP1;P1;durP2;ratioP2;P2;SDS_P1;SDS_P2;PMS_P1;PMS_P2;Temp;Humidity;BMP_temperature;BMP_pressure;BME280_temperature;BME280_humidity;BME280_pressure;Samples;Min_cycle;Max_cycle;Signal;HPM_P1;HPM_P2
2023/05/23 00:02:37;;;;;;;1.00;0.63;;;;;;;19.89;100.00;101694.38;10497027;28;20047;-77
2023/05/23 00:07:45;;;;;;;0.30;0.25;;;;;;;20.45;100.00;101691.66;10479031;28;20045;-77
2023/05/23 00:12:46;;;;;;;0.00;0.00;;;;;;;20.06;100.00;101696.13;10467462;28;20041;-76
2023/05/23 00:17:48;;;;;;;0.25;0.25;;;;;;;19.65;100.00;101693.47;10457646;28;20105;-75
2023/05/23 00:22:51;;;;;;;0.57;0.35;;;;;;;19.84;100.00;101697.84;10492739;28;20040;-78
2023/05/23 00:27:53;;;;;;;0.20;0.20;;;;;;;20.00;100.00;101693.50;10490356;28;20056;-76
2023/05/23 00:32:55;;;;;;;0.45;0.35;;;;;;;19.56;100.00;101696.06;10499223;28;20032;-78
2023/05/23 00:37:56;;;;;;;0.57;0.52;;;;;;;20.38;100.00;101700.41;10473142;28;20045;-76
2023/05/23 00:42:59;;;;;;;0.85;0.47;;;;;;;20.17;100.00;101701.34;10480599;28;20548;-77
2023/05/23 00:48:02;;;;;;;0.47;0.45;;;;;;;19.77;100.00;101707.44;10488179;28;20392;-75
2023/05/23 00:53:04;;;;;;;0.82;0.63;;;;;;;19.89;100.00;101702.22;10486334;28;20056;-76
2023/05/23 00:58:05;;;;;;;1.30;0.90;;;;;;;19.59;100.00;101703.03;10483342;28;20408;-78
2023/05/23 01:03:07;;;;;;;0.60;0.60;;;;;;;19.63;100.00;101708.28;10492744;28;20041;-76
2023/05/23 01:08:09;;;;;;;1.48;0.70;;;;;;;19.26;100.00;101718.66;10498088;28;20455;-79
2023/05/23 01:13:33;;;;;;;0.65;0.35;;;;;;;19.20;100.00;101726.47;10464381;28;20404;-78
2023/05/23 01:18:40;;;;;;;0.13;0.10;;;;;;;19.24;100.00;101719.53;10458237;28;20732;-78
2023/05/23 01:24:11;;;;;;;0.28;0.13;;;;;;;19.25;100.00;101740.41;10487949;28;20132;-77
2023/05/23 01:29:21;;;;;;;1.75;1.55;;;;;;;19.03;100.00;101736.88;10460948;28;20528;-77
2023/05/23 01:34:23;;;;;;;2.70;0.52;;;;;;;19.18;100.00;101743.88;10487067;28;20397;-77
2023/05/23 01:39:26;;;;;;;0.20;0.10;;;;;;;19.28;100.00;101744.81;10477049;28;20044;-75
2023/05/23 01:44:28;;;;;;;0.00;0.00;;;;;;;19.15;100.00;101729.06;10493383;28;20047;-78
2023/05/23 01:49:31;;;;;;;0.20;0.20;;;;;;;19.29;100.00;101726.50;10486736;28;20126;-77
2023/05/23 01:54:34;;;;;;;1.67;0.93;;;;;;;18.53;100.00;101746.16;10485298;28;20473;-77
2023/05/23 01:59:37;;;;;;;0.52;0.50;;;;;;;18.99;100.00;101748.16;10479644;28;20091;-75
2023/05/23 02:04:40;;;;;;;0.50;0.50;;;;;;;18.69;100.00;101758.44;10477322;28;20610;-76
2023/05/23 02:09:41;;;;;;;0.95;0.75;;;;;;;18.63;100.00;101760.13;10457682;28;20400;-76
2023/05/23 02:14:43;;;;;;;0.75;0.60;;;;;;;18.80;100.00;101768.06;10468974;28;20045;-76
2023/05/23 02:19:45;;;;;;;0.20;0.20;;;;;;;18.66;100.00;101768.84;10482076;28;20056;-77
2023/05/23 02:24:48;;;;;;;0.40;0.30;;;;;;;19.43;100.00;101760.53;10492030;28;20127;-77
2023/05/23 02:29:50;;;;;;;0.88;0.82;;;;;;;18.78;100.00;101768.03;10479202;28;20056;-76
2023/05/23 02:34:51;;;;;;;0.68;0.47;;;;;;;19.03;100.00;101771.69;10475434;28;20403;-75
2023/05/23 02:39:56;;;;;;;1.83;0.63;;;;;;;18.78;100.00;101780.25;10498612;28;20036;-76
2023/05/23 02:44:57;;;;;;;0.43;0.28;;;;;;;18.74;100.00;101784.56;10493725;28;20036;-79
2023/05/23 02:49:59;;;;;;;1.30;0.63;;;;;;;18.79;100.00;101782.84;10483433;28;20066;-78
2023/05/23 02:55:02;;;;;;;0.60;0.60;;;;;;;18.75;100.00;101783.72;10461362;28;20484;-79
2023/05/23 03:00:12;;;;;;;0.43;0.43;;;;;;;18.29;100.00;101792.06;10480848;28;20521;-77
2023/05/23 03:05:20;;;;;;;5.43;0.80;;;;;;;18.48;100.00;101797.44;10460885;28;20049;-79
2023/05/23 03:10:21;;;;;;;0.63;0.45;;;;;;;18.87;100.00;101796.81;10483131;28;20090;-77
2023/05/23 03:15:24;;;;;;;0.45;0.32;;;;;;;19.08;100.00;101799.56;10474512;28;20595;-78
2023/05/23 03:20:29;;;;;;;2.22;0.70;;;;;;;18.81;100.00;101796.78;10489914;28;20053;-79
2023/05/23 03:25:31;;;;;;;1.80;0.98;;;;;;;19.17;100.00;101802.25;10451071;28;20048;-78
2023/05/23 03:30:33;;;;;;;1.65;0.82;;;;;;;18.94;100.00;101808.22;10457647;28;20494;-77
2023/05/23 03:35:34;;;;;;;1.42;0.65;;;;;;;18.92;100.00;101809.06;10481954;28;20040;-78
2023/05/23 03:40:36;;;;;;;1.10;0.80;;;;;;;18.76;100.00;101813.28;10465396;28;20376;-78
2023/05/23 03:45:38;;;;;;;0.90;0.35;;;;;;;18.44;100.00;101812.19;10474691;28;20129;-78
2023/05/23 03:50:46;;;;;;;1.75;1.27;;;;;;;18.47;100.00;101819.16;10483960;28;20106;-77
2023/05/23 03:55:48;;;;;;;1.85;0.80;;;;;;;18.16;100.00;101816.31;10484892;28;20049;-77
2023/05/23 04:00:51;;;;;;;0.57;0.57;;;;;;;18.68;100.00;101827.16;10456027;28;20044;-78
2023/05/23 04:05:56;;;;;;;0.28;0.28;;;;;;;18.43;100.00;101825.25;10473626;28;20039;-79
2023/05/23 04:11:01;;;;;;;2.88;1.65;;;;;;;18.82;100.00;101829.88;10478913;28;20093;-77
2023/05/23 04:16:07;;;;;;;0.00;0.00;;;;;;;18.48;100.00;101836.59;10474629;28;20089;-78
2023/05/23 04:21:09;;;;;;;1.40;0.82;;;;;;;18.33;100.00;101843.41;10483543;28;20051;-77
2023/05/23 04:26:19;;;;;;;2.40;0.95;;;;;;;18.05;100.00;101851.00;10474351;28;20040;-77
2023/05/23 04:31:25;;;;;;;1.55;0.60;;;;;;;17.38;100.00;101871.88;10492431;28;20054;-78
2023/05/23 04:36:28;;;;;;;4.95;1.05;;;;;;;17.73;100.00;101877.53;10474330;28;20048;-76
2023/05/23 04:41:31;;;;;;;1.85;0.70;;;;;;;18.02;100.00;101874.41;10459472;28;20091;-76
2023/05/23 04:46:44;;;;;;;0.20;0.20;;;;;;;18.16;100.00;101884.13;10463374;28;20155;-77
2023/05/23 04:52:08;;;;;;;0.65;0.65;;;;;;;18.91;100.00;101885.63;10471492;28;20049;-76
2023/05/23 04:57:14;;;;;;;0.50;0.30;;;;;;;18.12;100.00;101888.41;10462015;28;20091;-77
2023/05/23 05:02:17;;;;;;;9.38;1.20;;;;;;;17.86;100.00;101902.03;10474975;28;20598;-77
2023/05/23 05:07:19;;;;;;;0.55;0.55;;;;;;;18.46;100.00;101898.31;10470499;28;20127;-76
2023/05/23 05:12:22;;;;;;;1.35;0.73;;;;;;;18.21;100.00;101913.72;10491845;28;20052;-76
2023/05/23 05:17:25;;;;;;;0.93;0.63;;;;;;;17.85;100.00;101915.03;10472242;28;20047;-77
2023/05/23 05:22:39;;;;;;;1.38;0.90;;;;;;;17.90;100.00;101916.84;10470994;28;20083;-77
2023/05/23 05:27:42;;;;;;;0.47;0.40;;;;;;;17.93;100.00;101923.81;10472824;28;20063;-76
2023/05/23 05:32:47;;;;;;;1.13;0.43;;;;;;;17.62;100.00;101933.00;10465682;28;20471;-78
2023/05/23 05:37:49;;;;;;;0.47;0.40;;;;;;;17.92;100.00;101942.91;10465348;28;20503;-76
2023/05/23 05:42:52;;;;;;;1.17;0.93;;;;;;;17.43;100.00;101943.16;10486906;28;20139;-79
2023/05/23 05:47:56;;;;;;;1.10;0.88;;;;;;;16.84;100.00;101955.25;10479252;28;20067;-78
2023/05/23 05:52:58;;;;;;;1.13;0.98;;;;;;;16.81;100.00;101963.88;10484826;28;20048;-78
2023/05/23 05:58:00;;;;;;;3.45;1.67;;;;;;;17.29;100.00;101966.41;10478926;28;20080;-78
2023/05/23 06:03:10;;;;;;;2.23;1.30;;;;;;;16.86;100.00;101978.72;10467328;28;20048;-77
2023/05/23 06:08:19;;;;;;;;;;;;;;;16.82;100.00;101975.19;10481087;28;20133;-78
2023/05/23 06:13:22;;;;;;;0.85;0.40;;;;;;;16.72;100.00;101979.31;10458059;28;19977;-78
2023/05/23 06:18:26;;;;;;;1.45;0.45;;;;;;;17.32;100.00;101976.84;10469298;28;20056;-77
2023/05/23 06:23:28;;;;;;;1.05;0.95;;;;;;;16.78;100.00;101988.97;10485427;28;20056;-77
2023/05/23 06:28:30;;;;;;;3.83;0.70;;;;;;;17.31;100.00;101995.06;10485791;28;20066;-78
2023/05/23 06:33:31;;;;;;;0.47;0.47;;;;;;;16.87;100.00;102009.06;10489357;28;20040;-78
2023/05/23 06:38:33;;;;;;;0.68;0.30;;;;;;;16.52;100.00;102006.72;10469789;28;20044;-79
2023/05/23 06:43:35;;;;;;;0.40;0.35;;;;;;;16.14;100.00;102013.78;10449255;28;20052;-78
2023/05/23 06:48:50;;;;;;;0.40;0.40;;;;;;;16.31;100.00;102028.84;10467178;28;20373;-78
2023/05/23 06:54:12;;;;;;;1.00;0.32;;;;;;;16.27;100.00;102029.66;10468732;28;20039;-77
2023/05/23 06:59:14;;;;;;;2.65;0.52;;;;;;;16.88;100.00;102044.66;10474993;28;20134;-77
2023/05/23 07:04:17;;;;;;;0.05;0.05;;;;;;;16.38;100.00;102041.13;10477878;28;20048;-78
2023/05/23 07:09:18;;;;;;;1.15;0.77;;;;;;;17.11;100.00;102047.72;10474365;28;20423;-78
2023/05/23 07:14:20;;;;;;;0.30;0.15;;;;;;;16.29;100.00;102049.63;10457649;28;20040;-78
2023/05/23 07:19:23;;;;;;;0.30;0.20;;;;;;;16.41;100.00;102053.31;10485677;28;20514;-80
2023/05/23 07:24:26;;;;;;;0.50;0.50;;;;;;;16.02;100.00;102068.13;10463420;28;20049;-77
2023/05/23 07:29:31;;;;;;;5.78;0.82;;;;;;;16.30;100.00;102071.31;10481829;28;20048;-78
2023/05/23 07:34:32;;;;;;;0.30;0.25;;;;;;;15.92;100.00;102081.75;10478193;28;20041;-77
2023/05/23 07:39:35;;;;;;;0.25;0.25;;;;;;;15.99;100.00;102074.13;10458836;28;20044;-77
2023/05/23 07:44:40;;;;;;;0.45;0.38;;;;;;;15.58;100.00;102091.34;10489885;28;20046;-77
2023/05/23 07:49:43;;;;;;;0.55;0.52;;;;;;;16.06;100.00;102095.94;10475330;28;20045;-78
2023/05/23 07:54:45;;;;;;;2.92;0.63;;;;;;;16.12;100.00;102096.06;10456084;28;20045;-77
2023/05/23 07:59:48;;;;;;;2.25;0.70;;;;;;;16.06;100.00;102098.53;10462844;28;20048;-79
2023/05/23 08:04:50;;;;;;;0.40;0.22;;;;;;;16.56;100.00;102097.84;10473602;28;20045;-77
2023/05/23 08:09:52;;;;;;;1.73;1.15;;;;;;;16.72;100.00;102099.03;10452212;28;20049;-75
2023/05/23 08:14:54;;;;;;;0.55;0.25;;;;;;;17.21;100.00;102113.84;10465121;28;20404;-78
2023/05/23 08:20:03;;;;;;;2.13;0.30;;;;;;;18.12;100.00;102109.22;10446151;28;20056;-79
2023/05/23 08:25:06;;;;;;;4.70;1.10;;;;;;;17.66;100.00;102112.88;10469089;28;20101;-77
2023/05/23 08:30:11;;;;;;;0.98;0.60;;;;;;;16.90;100.00;102123.66;10479098;28;20051;-79
2023/05/23 08:35:13;;;;;;;0.10;0.10;;;;;;;16.72;100.00;102126.78;10458871;28;20043;-80
2023/05/23 08:40:21;;;;;;;1.60;0.75;;;;;;;17.05;100.00;102137.00;10483677;28;20509;-80
2023/05/23 08:45:33;;;;;;;0.98;0.50;;;;;;;18.03;100.00;102120.38;10471989;28;20037;-80
2023/05/23 08:50:38;;;;;;;1.55;0.80;;;;;;;16.60;100.00;102130.91;10477351;28;20083;-79
2023/05/23 08:55:43;;;;;;;0.63;0.38;;;;;;;16.78;100.00;102133.00;10448622;28;20037;-78
2023/05/23 09:00:51;;;;;;;0.03;0.03;;;;;;;16.53;100.00;102143.75;10443692;28;20492;-79
2023/05/23 09:05:55;;;;;;;1.00;0.70;;;;;;;16.95;100.00;102148.06;10463912;28;20043;-79
2023/05/23 09:10:57;;;;;;;0.00;0.00;;;;;;;17.17;100.00;102156.28;10481078;28;20131;-79
2023/05/23 09:16:01;;;;;;;0.28;0.15;;;;;;;18.55;100.00;102148.94;10471380;28;20040;-79
2023/05/23 09:21:08;;;;;;;0.30;0.20;;;;;;;17.75;100.00;102146.91;10487792;28;20048;-78
2023/05/23 09:26:12;;;;;;;0.75;0.25;;;;;;;17.99;100.00;102152.50;10486650;28;20052;-77
2023/05/23 09:31:15;;;;;;;0.10;0.10;;;;;;;17.58;100.00;102161.38;10488857;28;20044;-79
2023/05/23 09:36:17;;;;;;;0.65;0.65;;;;;;;18.31;100.00;102158.16;10479852;28;20059;-79
2023/05/23 09:41:20;;;;;;;0.82;0.57;;;;;;;17.71;100.00;102163.31;10494770;28;20573;-79
2023/05/23 09:46:28;;;;;;;0.30;0.20;;;;;;;17.32;100.00;102177.41;10491326;28;20044;-79
2023/05/23 09:51:30;;;;;;;0.75;0.25;;;;;;;17.89;100.00;102170.56;10452054;28;20056;-79
2023/05/23 09:56:33;;;;;;;0.00;0.00;;;;;;;18.77;100.00;102180.50;10487761;28;20056;-79
2023/05/23 10:01:35;;;;;;;0.00;0.00;;;;;;;18.20;100.00;102186.72;10487969;28;20063;-79
2023/05/23 10:06:43;;;;;;;2.85;0.43;;;;;;;18.08;100.00;102195.22;10500878;28;20050;-80
2023/05/23 10:12:22;;;;;;;0.30;0.30;;;;;;;18.24;100.00;102185.91;10480135;28;20037;-79
2023/05/23 10:17:43;;;;;;;0.20;0.20;;;;;;;20.24;100.00;102174.91;10487099;28;20533;-79
2023/05/23 10:22:46;;;;;;;0.57;0.30;;;;;;;20.34;100.00;102174.97;10488631;28;20048;-80
2023/05/23 10:27:48;;;;;;;0.57;0.45;;;;;;;19.22;100.00;102181.03;10496753;28;20068;-78
2023/05/23 10:32:54;;;;;;;0.22;0.10;;;;;;;19.99;100.00;102179.13;10486330;28;20465;-79
2023/05/23 10:38:03;;;;;;;2.95;0.38;;;;;;;19.32;96.26;102186.34;10479843;28;20131;-80
2023/05/23 10:43:15;;;;;;;0.93;0.82;;;;;;;20.16;95.05;102171.38;10497380;28;20052;-77
2023/05/23 10:48:43;;;;;;;0.17;0.00;;;;;;;19.95;93.76;102178.22;10478800;28;20389;-78
2023/05/23 10:53:45;;;;;;;0.20;0.10;;;;;;;20.42;93.80;102179.38;10494870;28;20415;-78
2023/05/23 10:58:53;;;;;;;0.10;0.10;;;;;;;20.25;96.63;102179.28;10478061;28;20507;-79
2023/05/23 11:03:55;;;;;;;1.10;0.63;;;;;;;19.92;92.11;102178.19;10506427;28;20131;-80
2023/05/23 11:09:05;;;;;;;0.10;0.10;;;;;;;20.57;94.48;102173.34;10482043;28;20131;-80
2023/05/23 11:14:08;;;;;;;0.32;0.20;;;;;;;20.16;94.51;102181.84;10474701;28;20143;-79
2023/05/23 11:19:24;;;;;;;0.00;0.00;;;;;;;20.54;89.66;102173.34;10477136;28;20049;-78
2023/05/23 11:24:51;;;;;;;0.95;0.73;;;;;;;22.13;89.49;102164.84;10497670;28;20044;-78
2023/05/23 11:30:15;;;;;;;0.10;0.10;;;;;;;20.65;88.45;102180.38;10486452;28;20045;-78
2023/05/23 11:35:17;;;;;;;2.40;1.17;;;;;;;20.55;88.17;102185.56;10482458;28;20109;-79
2023/05/23 11:40:29;;;;;;;0.15;0.15;;;;;;;21.45;89.01;102180.59;10480314;28;20063;-79
2023/05/23 11:45:32;;;;;;;0.00;0.00;;;;;;;21.31;84.27;102187.56;10480008;28;20483;-78
2023/05/23 11:50:45;;;;;;;0.22;0.22;;;;;;;20.59;87.88;102182.06;10479107;28;20049;-78
2023/05/23 11:55:53;;;;;;;0.10;0.10;;;;;;;21.14;89.69;102183.16;10491168;28;20048;-78
2023/05/23 12:01:02;;;;;;;0.15;0.15;;;;;;;20.75;86.93;102187.41;10474963;28;20047;-78
2023/05/23 12:06:04;;;;;;;0.20;0.20;;;;;;;20.84;86.88;102182.22;10472159;28;20484;-79
2023/05/23 12:11:06;;;;;;;0.52;0.10;;;;;;;20.13;88.41;102187.06;10475439;28;20514;-77
2023/05/23 12:16:08;;;;;;;0.20;0.20;;;;;;;21.94;84.88;102178.84;10487723;28;20032;-79
2023/05/23 12:21:10;;;;;;;0.45;0.10;;;;;;;21.62;84.06;102175.38;10497168;28;20061;-78
2023/05/23 12:26:12;;;;;;;0.88;0.30;;;;;;;20.18;85.44;102189.72;10476480;28;20086;-77
2023/05/23 12:31:20;;;;;;;0.30;0.17;;;;;;;22.10;87.29;102174.47;10496930;28;20383;-78
2023/05/23 12:36:30;;;;;;;0.57;0.20;;;;;;;21.37;84.31;102190.19;10483661;28;20112;-79
2023/05/23 12:41:32;;;;;;;0.20;0.15;;;;;;;20.42;85.18;102189.84;10485781;28;20061;-78
2023/05/23 12:46:34;;;;;;;1.40;0.80;;;;;;;21.18;84.83;102191.91;10453339;28;20491;-78
2023/05/23 12:51:36;;;;;;;0.98;0.25;;;;;;;22.15;84.38;102188.44;10491622;28;20634;-79
2023/05/23 12:56:38;;;;;;;0.00;0.00;;;;;;;20.58;83.34;102209.16;10469335;28;20041;-79
2023/05/23 13:23:40;;;;;;;0.20;0.20;;;;;;;23.44;66.89;102201.94;10528250;27;20819;-79
2023/05/23 13:28:42;;;;;;;0.90;0.52;;;;;;;23.96;69.50;102194.53;10450360;28;20059;-80
2023/05/23 13:33:43;;;;;;;0.00;0.00;;;;;;;23.44;69.47;102200.16;10450924;28;20053;-80
2023/05/23 13:38:45;;;;;;;0.20;0.20;;;;;;;23.97;70.16;102207.66;10498225;28;20045;-79
2023/05/23 13:43:47;;;;;;;0.52;0.35;;;;;;;23.54;68.66;102213.25;10470760;28;20163;-82
2023/05/23 13:48:48;;;;;;;0.52;0.25;;;;;;;24.89;68.91;102210.16;10454169;28;20060;-81
2023/05/23 13:53:50;;;;;;;0.00;0.00;;;;;;;23.36;68.72;102204.59;10450133;28;20583;-80
2023/05/23 13:58:51;;;;;;;0.00;0.00;;;;;;;22.95;69.33;102208.34;10459170;28;20065;-81
2023/05/23 14:03:53;;;;;;;0.52;0.30;;;;;;;23.29;70.93;102214.31;10454435;28;20045;-80
2023/05/23 14:08:55;;;;;;;0.75;0.52;;;;;;;23.21;68.68;102220.47;10459614;28;20041;-81
2023/05/23 14:13:56;;;;;;;0.08;0.03;;;;;;;24.49;69.83;102205.34;10456547;28;20048;-82
2023/05/23 14:18:58;;;;;;;1.02;0.88;;;;;;;23.50;65.16;102219.41;10459165;28;20048;-81
2023/05/23 14:24:00;;;;;;;0.40;0.40;;;;;;;22.55;72.34;102216.38;10458885;28;20053;-81
2023/05/23 14:29:01;;;;;;;0.05;0.00;;;;;;;22.36;68.05;102224.28;10454260;28;20044;-81
2023/05/23 14:34:03;;;;;;;1.77;0.75;;;;;;;22.37;69.46;102226.03;10457677;28;20041;-81
2023/05/23 14:39:06;;;;;;;3.47;0.90;;;;;;;21.15;72.42;102237.34;10467898;28;20136;-82
2023/05/23 14:44:11;;;;;;;0.15;0.10;;;;;;;21.41;70.13;102236.50;10456138;28;20110;-81
2023/05/23 14:49:14;;;;;;;0.00;0.00;;;;;;;22.53;66.74;102231.25;10447480;28;20049;-82
2023/05/23 14:54:16;;;;;;;0.05;0.05;;;;;;;21.71;69.53;102234.81;10457503;28;20640;-83
2023/05/23 14:59:17;;;;;;;0.15;0.10;;;;;;;21.48;64.99;102233.00;10452177;28;20045;-82
2023/05/23 15:04:19;;;;;;;0.38;0.20;;;;;;;22.45;65.26;102233.91;10451069;28;20037;-81
2023/05/23 15:09:21;;;;;;;0.43;0.28;;;;;;;21.91;63.91;102231.34;10448663;28;20515;-81
2023/05/23 15:14:28;;;;;;;0.10;0.10;;;;;;;22.50;63.29;102219.91;10439438;28;20057;-80
2023/05/23 15:19:29;;;;;;;0.40;0.30;;;;;;;21.95;65.96;102222.59;10449288;28;20487;-80
2023/05/23 15:24:31;;;;;;;0.45;0.45;;;;;;;22.57;67.71;102228.63;10452043;28;20063;-80
2023/05/23 15:29:38;;;;;;;0.05;0.05;;;;;;;21.54;66.70;102233.06;10451057;28;20488;-81
2023/05/23 15:34:40;;;;;;;0.15;0.10;;;;;;;22.81;64.68;102235.56;10449643;28;20049;-81
2023/05/23 15:39:42;;;;;;;0.30;0.17;;;;;;;22.43;61.59;102233.94;10437921;28;20059;-81
2023/05/23 15:44:44;;;;;;;0.00;0.00;;;;;;;23.09;61.18;102224.91;10453568;28;20403;-82
2023/05/23 15:49:46;;;;;;;0.20;0.15;;;;;;;22.59;56.83;102237.38;10445168;28;20048;-82
2023/05/23 15:54:47;;;;;;;0.10;0.10;;;;;;;22.03;61.59;102236.56;10457543;28;20558;-82
2023/05/23 15:59:49;;;;;;;0.10;0.10;;;;;;;23.59;63.16;102243.03;10450650;28;20447;-82
2023/05/23 16:04:51;;;;;;;0.45;0.30;;;;;;;22.73;60.79;102244.34;10434931;28;20049;-81
2023/05/23 16:09:52;;;;;;;2.30;1.70;;;;;;;22.33;58.73;102237.41;10438289;28;20041;-81
2023/05/23 16:14:54;;;;;;;0.00;0.00;;;;;;;22.44;59.28;102238.31;10432302;28;20059;-81
2023/05/23 16:19:55;;;;;;;0.20;0.20;;;;;;;22.38;61.50;102243.53;10470962;28;20051;-80
2023/05/23 16:24:57;;;;;;;0.00;0.00;;;;;;;22.64;63.44;102242.63;10454535;28;20070;-81
2023/05/23 16:29:59;;;;;;;0.40;0.13;;;;;;;21.70;60.04;102249.69;10462127;28;20471;-81
2023/05/23 16:35:00;;;;;;;0.05;0.05;;;;;;;22.84;62.20;102245.19;10459200;28;20080;-82
2023/05/23 16:40:03;;;;;;;1.88;0.25;;;;;;;23.02;57.95;102240.69;10459307;28;20128;-81
2023/05/23 16:45:05;;;;;;;0.65;0.65;;;;;;;22.18;58.64;102231.31;10448648;28;20056;-81
2023/05/23 16:50:08;;;;;;;0.20;0.20;;;;;;;22.98;59.08;102230.22;10448222;28;20036;-81
2023/05/23 16:55:09;;;;;;;0.43;0.43;;;;;;;22.21;59.59;102240.06;10453160;28;20136;-82
2023/05/23 17:00:11;;;;;;;3.00;0.52;;;;;;;22.37;58.84;102235.66;10447653;28;20112;-80
2023/05/23 17:05:14;;;;;;;0.20;0.20;;;;;;;21.64;62.18;102246.19;10463961;28;20504;-80
2023/05/23 17:10:15;;;;;;;0.00;0.00;;;;;;;21.87;61.30;102241.81;10447412;28;20792;-81
2023/05/23 17:15:20;;;;;;;0.00;0.00;;;;;;;21.66;61.23;102257.56;10428043;28;20086;-81
2023/05/23 17:20:23;;;;;;;0.00;0.00;;;;;;;21.38;59.20;102249.63;10444080;28;20033;-81
2023/05/23 17:25:24;;;;;;;0.10;0.05;;;;;;;21.27;59.73;102249.59;10444608;28;20040;-80
2023/05/23 17:30:27;;;;;;;0.10;0.10;;;;;;;21.72;60.50;102254.94;10447884;28;20041;-81
2023/05/23 17:35:28;;;;;;;0.05;0.05;;;;;;;21.10;61.24;102256.53;10426644;28;20450;-81
2023/05/23 17:40:30;;;;;;;1.08;0.28;;;;;;;21.12;58.93;102250.41;10434381;28;20037;-80
2023/05/23 17:45:32;;;;;;;0.00;0.00;;;;;;;21.04;61.79;102254.75;10462900;28;20068;-80
2023/05/23 17:50:33;;;;;;;0.13;0.13;;;;;;;20.25;62.35;102268.25;10447567;28;20060;-81
2023/05/23 17:55:35;;;;;;;2.20;0.73;;;;;;;20.52;65.18;102266.69;10444720;28;20056;-81
2023/05/23 18:00:36;;;;;;;0.08;0.08;;;;;;;20.27;64.92;102269.16;10463337;28;20087;-81
2023/05/23 18:05:38;;;;;;;0.00;0.00;;;;;;;19.93;66.78;102279.34;10464784;28;20048;-80
2023/05/23 18:10:46;;;;;;;0.50;0.40;;;;;;;19.52;66.41;102287.63;10464100;28;20477;-81
2023/05/23 18:15:47;;;;;;;1.13;0.13;;;;;;;20.00;66.32;102287.22;10437654;28;20055;-80
2023/05/23 18:20:49;;;;;;;0.10;0.10;;;;;;;19.45;65.21;102291.03;10451456;28;20052;-81
2023/05/23 18:25:51;;;;;;;0.00;0.00;;;;;;;18.82;66.32;102304.16;10443073;28;20403;-80
2023/05/23 18:30:53;;;;;;;0.00;0.00;;;;;;;18.60;67.95;102298.63;10462352;28;20068;-80
2023/05/23 18:35:54;;;;;;;0.00;0.00;;;;;;;19.02;67.76;102302.69;10455985;28;20055;-80
2023/05/23 18:40:56;;;;;;;0.00;0.00;;;;;;;18.79;68.07;102309.34;10443849;28;20056;-80
2023/05/23 18:45:57;;;;;;;0.00;0.00;;;;;;;18.30;69.00;102320.78;10443470;28;20053;-80
2023/05/23 18:50:59;;;;;;;4.30;0.98;;;;;;;18.88;70.90;102309.44;10460098;28;20049;-79
2023/05/23 18:56:01;;;;;;;0.00;0.00;;;;;;;18.58;69.60;102307.28;10452795;28;20053;-81
2023/05/23 19:01:03;;;;;;;0.45;0.13;;;;;;;18.53;69.67;102317.66;10444063;28;20049;-80
2023/05/23 19:06:05;;;;;;;1.45;0.32;;;;;;;17.96;71.38;102324.53;10457315;28;20131;-80
2023/05/23 19:11:09;;;;;;;0.25;0.25;;;;;;;18.80;71.08;102332.00;10468777;28;20053;-80
2023/05/23 19:16:11;;;;;;;1.20;0.08;;;;;;;18.37;72.35;102340.88;10451287;28;20135;-80
2023/05/23 19:21:12;;;;;;;0.38;0.20;;;;;;;17.85;73.54;102353.88;10459139;28;20419;-79
2023/05/23 19:26:14;;;;;;;0.15;0.05;;;;;;;17.92;73.31;102358.34;10433501;28;20514;-80
2023/05/23 19:31:18;;;;;;;0.03;0.00;;;;;;;17.93;73.06;102359.22;10447399;28;20167;-80
2023/05/23 19:36:20;;;;;;;0.00;0.00;;;;;;;18.09;73.33;102363.03;10434579;28;20053;-80
2023/05/23 19:41:22;;;;;;;0.00;0.00;;;;;;;17.66;74.34;102367.38;10458355;28;20506;-79
2023/05/23 19:46:23;;;;;;;0.35;0.30;;;;;;;17.52;76.82;102378.41;10449625;28;20048;-80
2023/05/23 19:51:25;;;;;;;4.95;0.73;;;;;;;17.01;78.06;102387.75;10460379;28;20045;-80
2023/05/23 19:56:27;;;;;;;3.72;1.35;;;;;;;17.56;77.70;102382.84;10432036;28;20049;-79
2023/05/23 20:01:29;;;;;;;0.00;0.00;;;;;;;17.76;77.66;102388.44;10453265;28;20045;-80
2023/05/23 20:06:32;;;;;;;0.20;0.15;;;;;;;17.12;79.21;102401.88;10438730;28;20048;-79
2023/05/23 20:11:34;;;;;;;0.80;0.52;;;;;;;17.00;79.25;102409.41;10411483;28;20064;-80
2023/05/23 20:16:37;;;;;;;0.30;0.20;;;;;;;17.55;78.51;102401.03;10437593;28;20060;-79
2023/05/23 20:21:38;;;;;;;0.10;0.10;;;;;;;16.87;81.32;102420.31;10454629;28;20045;-79
2023/05/23 20:26:40;;;;;;;0.00;0.00;;;;;;;17.11;80.35;102431.34;10456552;28;20446;-79
2023/05/23 20:31:42;;;;;;;0.00;0.00;;;;;;;16.77;83.15;102434.84;10459669;28;20510;-79
2023/05/23 20:36:44;;;;;;;0.00;0.00;;;;;;;16.95;81.79;102439.63;10432766;28;20049;-79
2023/05/23 20:41:47;;;;;;;0.00;0.00;;;;;;;17.12;80.67;102427.03;10457563;28;20135;-79
2023/05/23 20:46:49;;;;;;;0.28;0.15;;;;;;;17.84;79.90;102416.38;10434461;28;20045;-79
2023/05/23 20:51:51;;;;;;;1.45;0.45;;;;;;;17.77;79.93;102412.78;10463305;28;20059;-79
2023/05/23 20:56:52;;;;;;;1.35;0.22;;;;;;;17.41;80.04;102421.59;10458418;28;20060;-79
2023/05/23 21:01:55;;;;;;;0.00;0.00;;;;;;;17.66;79.83;102425.63;10452891;28;20041;-79
2023/05/23 21:06:57;;;;;;;0.05;0.03;;;;;;;17.38;80.00;102425.03;10457452;28;20072;-79
2023/05/23 21:11:59;;;;;;;0.00;0.00;;;;;;;18.39;76.61;102429.66;10456760;28;20510;-79
2023/05/23 21:17:00;;;;;;;0.00;0.00;;;;;;;17.68;80.53;102418.72;10435979;28;20060;-79
2023/05/23 21:22:02;;;;;;;0.00;0.00;;;;;;;17.99;79.23;102419.31;10445166;28;20469;-79
2023/05/23 21:27:04;;;;;;;0.08;0.08;;;;;;;17.33;82.89;102425.75;10432661;28;20060;-79
2023/05/23 21:32:06;;;;;;;0.00;0.00;;;;;;;17.12;81.53;102435.72;10449282;28;20098;-79
2023/05/23 21:37:08;;;;;;;0.00;0.00;;;;;;;17.46;81.93;102425.19;10455996;28;20051;-79
2023/05/23 21:42:09;;;;;;;0.00;0.00;;;;;;;16.89;84.25;102422.16;10456170;28;20041;-79
2023/05/23 21:47:11;;;;;;;0.00;0.00;;;;;;;16.87;83.74;102425.53;10456519;28;20396;-79
2023/05/23 21:52:13;;;;;;;0.00;0.00;;;;;;;18.27;75.56;102419.88;10439079;28;20037;-79
2023/05/23 21:57:15;;;;;;;0.20;0.10;;;;;;;18.33;76.46;102409.53;10451765;28;20370;-79
2023/05/23 22:02:16;;;;;;;1.38;0.40;;;;;;;17.96;76.82;102413.19;10422841;28;20687;-79
2023/05/23 22:07:18;;;;;;;0.00;0.00;;;;;;;18.53;72.64;102411.59;10453756;28;20044;-79
2023/05/23 22:12:21;;;;;;;0.00;0.00;;;;;;;18.45;72.20;102410.59;10465744;28;20488;-79
2023/05/23 22:17:25;;;;;;;0.03;0.03;;;;;;;18.38;74.69;102412.22;10442075;28;20049;-79
2023/05/23 22:22:27;;;;;;;0.00;0.00;;;;;;;18.23;76.29;102410.22;10448457;28;20482;-79
2023/05/23 22:27:28;;;;;;;0.00;0.00;;;;;;;18.17;75.90;102417.94;10449619;28;20527;-79
2023/05/23 22:32:30;;;;;;;0.00;0.00;;;;;;;18.20;76.40;102418.00;10447748;28;20041;-79
2023/05/23 22:37:32;;;;;;;0.00;0.00;;;;;;;16.65;82.07;102431.09;10452435;28;20083;-79
2023/05/23 22:42:33;;;;;;;0.10;0.00;;;;;;;17.66;77.12;102416.91;10462073;28;20053;-79
2023/05/23 22:47:35;;;;;;;0.00;0.00;;;;;;;17.69;77.15;102411.75;10452094;28;20045;-79
2023/05/23 22:52:37;;;;;;;0.55;0.10;;;;;;;17.62;79.92;102409.88;10463080;28;20071;-79
2023/05/23 22:57:39;;;;;;;0.20;0.20;;;;;;;18.07;75.94;102412.53;10451393;28;20052;-79
2023/05/23 23:02:42;;;;;;;0.00;0.00;;;;;;;16.68;82.08;102421.63;10452007;28;20041;-79
2023/05/23 23:07:44;;;;;;;0.63;0.40;;;;;;;17.51;79.35;102413.13;10435850;28;20056;-79
2023/05/23 23:12:46;;;;;;;0.52;0.15;;;;;;;17.66;78.81;102411.69;10459392;28;20495;-79
2023/05/23 23:17:47;;;;;;;0.00;0.00;;;;;;;17.73;79.65;102404.03;10451691;28;20107;-79
2023/05/23 23:22:50;;;;;;;0.00;0.00;;;;;;;17.75;81.25;102415.38;10450260;28;20102;-79
2023/05/23 23:27:51;;;;;;;0.10;0.10;;;;;;;17.67;77.08;102411.72;10450723;28;20503;-79
2023/05/23 23:32:53;;;;;;;8.38;0.90;;;;;;;17.66;80.09;102419.50;10450026;28;20402;-79